sensor_id;sensor_type;location;lat;lon;timestamp;P1;durP1;ratioP1;P2;durP2;ratioP2
67140;SDS011;54058;52.010;5.546;2024-01-27T00:01:16;19.25;;;3.30;;
67140;SDS011;54058;52.010;5.546;2024-01-27T00:03:42;9.70;;;3.00;;
67140;SDS011;54058;52.010;5.546;2024-01-27T00:06:08;14.80;;;2.72;;
67140;SDS011;54058;52.010;5.546;2024-01-27T00:08:33;21.15;;;3.53;;
67140;SDS011;54058;52.010;5.546;2024-01-27T00:10:59;15.60;;;2.67;;
67140;SDS011;54058;52.010;5.546;2024-01-27T00:13:25;9.27;;;2.35;;
67140;SDS011;54058;52.010;5.546;2024-01-27T00:15:50;12.63;;;2.47;;
67140;SDS011;54058;52.010;5.546;2024-01-27T00:18:17;9.85;;;2.33;;
67140;SDS011;54058;52.010;5.546;2024-01-27T00:20:42;17.95;;;2.90;;
67140;SDS011;54058;52.010;5.546;2024-01-27T00:23:09;16.88;;;3.95;;
67140;SDS011;54058;52.010;5.546;2024-01-27T00:25:34;14.43;;;2.63;;
67140;SDS011;54058;52.010;5.546;2024-01-27T00:28:00;19.65;;;3.75;;
67140;SDS011;54058;52.010;5.546;2024-01-27T00:30:25;17.42;;;2.65;;
67140;SDS011;54058;52.010;5.546;2024-01-27T00:32:51;12.93;;;2.58;;
67140;SDS011;54058;52.010;5.546;2024-01-27T00:35:17;18.63;;;2.88;;
67140;SDS011;54058;52.010;5.546;2024-01-27T00:37:42;14.40;;;2.75;;
67140;SDS011;54058;52.010;5.546;2024-01-27T00:40:09;16.40;;;3.10;;
67140;SDS011;54058;52.010;5.546;2024-01-27T00:42:36;20.67;;;3.85;;
67140;SDS011;54058;52.010;5.546;2024-01-27T00:45:03;14.13;;;2.85;;
67140;SDS011;54058;52.010;5.546;2024-01-27T00:47:29;17.02;;;3.25;;
67140;SDS011;54058;52.010;5.546;2024-01-27T00:49:55;13.00;;;2.72;;
67140;SDS011;54058;52.010;5.546;2024-01-27T00:52:21;20.52;;;3.70;;
67140;SDS011;54058;52.010;5.546;2024-01-27T00:54:47;14.50;;;2.10;;
67140;SDS011;54058;52.010;5.546;2024-01-27T00:57:12;22.58;;;3.05;;
67140;SDS011;54058;52.010;5.546;2024-01-27T00:59:38;15.52;;;3.13;;
67140;SDS011;54058;52.010;5.546;2024-01-27T01:02:04;14.55;;;3.00;;
67140;SDS011;54058;52.010;5.546;2024-01-27T01:04:29;10.45;;;2.55;;
67140;SDS011;54058;52.010;5.546;2024-01-27T01:06:55;15.07;;;2.75;;
67140;SDS011;54058;52.010;5.546;2024-01-27T01:09:21;18.75;;;3.33;;
67140;SDS011;54058;52.010;5.546;2024-01-27T01:11:46;16.42;;;3.90;;
67140;SDS011;54058;52.010;5.546;2024-01-27T01:14:12;12.95;;;2.75;;
67140;SDS011;54058;52.010;5.546;2024-01-27T01:16:38;15.00;;;2.72;;
67140;SDS011;54058;52.010;5.546;2024-01-27T01:19:05;13.95;;;3.03;;
67140;SDS011;54058;52.010;5.546;2024-01-27T01:21:30;11.00;;;2.95;;
67140;SDS011;54058;52.010;5.546;2024-01-27T01:23:56;14.43;;;3.33;;
67140;SDS011;54058;52.010;5.546;2024-01-27T01:26:22;13.55;;;3.08;;
67140;SDS011;54058;52.010;5.546;2024-01-27T01:28:47;16.70;;;3.70;;
67140;SDS011;54058;52.010;5.546;2024-01-27T01:31:13;11.88;;;3.25;;
67140;SDS011;54058;52.010;5.546;2024-01-27T01:33:38;12.93;;;2.97;;
67140;SDS011;54058;52.010;5.546;2024-01-27T01:36:04;17.45;;;2.80;;
67140;SDS011;54058;52.010;5.546;2024-01-27T01:38:30;14.90;;;2.33;;
67140;SDS011;54058;52.010;5.546;2024-01-27T01:40:55;12.68;;;2.78;;
67140;SDS011;54058;52.010;5.546;2024-01-27T01:43:21;16.17;;;2.92;;
67140;SDS011;54058;52.010;5.546;2024-01-27T01:45:47;10.02;;;2.90;;
67140;SDS011;54058;52.010;5.546;2024-01-27T01:48:12;16.42;;;3.50;;
67140;SDS011;54058;52.010;5.546;2024-01-27T01:50:38;11.00;;;2.75;;
67140;SDS011;54058;52.010;5.546;2024-01-27T01:53:04;23.42;;;3.40;;
67140;SDS011;54058;52.010;5.546;2024-01-27T01:55:31;15.60;;;3.28;;
67140;SDS011;54058;52.010;5.546;2024-01-27T01:57:56;16.02;;;3.28;;
67140;SDS011;54058;52.010;5.546;2024-01-27T02:00:22;18.45;;;4.07;;
67140;SDS011;54058;52.010;5.546;2024-01-27T02:02:48;15.20;;;3.05;;
67140;SDS011;54058;52.010;5.546;2024-01-27T02:05:14;23.15;;;4.85;;
67140;SDS011;54058;52.010;5.546;2024-01-27T02:07:39;13.88;;;3.67;;
67140;SDS011;54058;52.010;5.546;2024-01-27T02:10:06;15.45;;;3.10;;
67140;SDS011;54058;52.010;5.546;2024-01-27T02:12:40;15.15;;;3.38;;
67140;SDS011;54058;52.010;5.546;2024-01-27T02:15:09;20.42;;;3.35;;
67140;SDS011;54058;52.010;5.546;2024-01-27T02:17:38;13.65;;;3.78;;
67140;SDS011;54058;52.010;5.546;2024-01-27T02:20:05;9.75;;;3.20;;
67140;SDS011;54058;52.010;5.546;2024-01-27T02:22:32;14.02;;;3.10;;
67140;SDS011;54058;52.010;5.546;2024-01-27T02:24:59;10.57;;;2.83;;
67140;SDS011;54058;52.010;5.546;2024-01-27T02:27:24;22.92;;;3.67;;
67140;SDS011;54058;52.010;5.546;2024-01-27T02:29:50;14.10;;;2.65;;
67140;SDS011;54058;52.010;5.546;2024-01-27T02:32:16;23.13;;;2.90;;
67140;SDS011;54058;52.010;5.546;2024-01-27T02:34:42;17.50;;;4.32;;
67140;SDS011;54058;52.010;5.546;2024-01-27T02:37:08;11.40;;;3.30;;
67140;SDS011;54058;52.010;5.546;2024-01-27T02:39:35;18.20;;;2.97;;
67140;SDS011;54058;52.010;5.546;2024-01-27T02:42:01;20.77;;;3.88;;
67140;SDS011;54058;52.010;5.546;2024-01-27T02:44:27;16.70;;;3.38;;
67140;SDS011;54058;52.010;5.546;2024-01-27T02:46:52;13.10;;;3.08;;
67140;SDS011;54058;52.010;5.546;2024-01-27T02:49:18;18.77;;;3.10;;
67140;SDS011;54058;52.010;5.546;2024-01-27T02:51:44;13.70;;;3.00;;
67140;SDS011;54058;52.010;5.546;2024-01-27T02:54:09;13.77;;;3.65;;
67140;SDS011;54058;52.010;5.546;2024-01-27T02:56:35;19.63;;;3.58;;
67140;SDS011;54058;52.010;5.546;2024-01-27T02:59:01;15.32;;;3.15;;
67140;SDS011;54058;52.010;5.546;2024-01-27T03:01:27;15.05;;;2.88;;
67140;SDS011;54058;52.010;5.546;2024-01-27T03:03:52;23.45;;;3.78;;
67140;SDS011;54058;52.010;5.546;2024-01-27T03:06:18;16.48;;;3.55;;
67140;SDS011;54058;52.010;5.546;2024-01-27T03:08:44;11.57;;;3.33;;
67140;SDS011;54058;52.010;5.546;2024-01-27T03:11:09;18.00;;;3.08;;
67140;SDS011;54058;52.010;5.546;2024-01-27T03:13:35;13.55;;;3.33;;
67140;SDS011;54058;52.010;5.546;2024-01-27T03:16:01;11.43;;;2.85;;
67140;SDS011;54058;52.010;5.546;2024-01-27T03:18:27;14.40;;;3.13;;
67140;SDS011;54058;52.010;5.546;2024-01-27T03:20:53;18.05;;;3.67;;
67140;SDS011;54058;52.010;5.546;2024-01-27T03:23:18;13.65;;;3.85;;
67140;SDS011;54058;52.010;5.546;2024-01-27T03:25:44;11.60;;;2.88;;
67140;SDS011;54058;52.010;5.546;2024-01-27T03:28:10;14.93;;;3.60;;
67140;SDS011;54058;52.010;5.546;2024-01-27T03:30:35;13.50;;;3.40;;
67140;SDS011;54058;52.010;5.546;2024-01-27T03:33:01;15.98;;;4.22;;
67140;SDS011;54058;52.010;5.546;2024-01-27T03:35:26;12.27;;;2.92;;
67140;SDS011;54058;52.010;5.546;2024-01-27T03:37:52;12.50;;;3.45;;
67140;SDS011;54058;52.010;5.546;2024-01-27T03:40:18;7.13;;;2.92;;
67140;SDS011;54058;52.010;5.546;2024-01-27T03:42:43;12.50;;;3.47;;
67140;SDS011;54058;52.010;5.546;2024-01-27T03:45:09;22.25;;;4.22;;
67140;SDS011;54058;52.010;5.546;2024-01-27T03:47:34;13.52;;;3.30;;
67140;SDS011;54058;52.010;5.546;2024-01-27T03:50:00;17.67;;;3.65;;
67140;SDS011;54058;52.010;5.546;2024-01-27T03:52:26;14.40;;;3.17;;
67140;SDS011;54058;52.010;5.546;2024-01-27T03:54:51;15.55;;;3.72;;
67140;SDS011;54058;52.010;5.546;2024-01-27T03:57:17;19.23;;;3.47;;
67140;SDS011;54058;52.010;5.546;2024-01-27T03:59:42;22.60;;;3.70;;
67140;SDS011;54058;52.010;5.546;2024-01-27T04:02:08;19.42;;;3.78;;
67140;SDS011;54058;52.010;5.546;2024-01-27T04:04:34;15.40;;;3.70;;
67140;SDS011;54058;52.010;5.546;2024-01-27T04:06:59;17.70;;;4.18;;
67140;SDS011;54058;52.010;5.546;2024-01-27T04:09:26;12.50;;;3.63;;
67140;SDS011;54058;52.010;5.546;2024-01-27T04:11:52;11.48;;;3.95;;
67140;SDS011;54058;52.010;5.546;2024-01-27T04:14:18;10.77;;;3.53;;
67140;SDS011;54058;52.010;5.546;2024-01-27T04:16:44;21.70;;;4.30;;
67140;SDS011;54058;52.010;5.546;2024-01-27T04:19:09;18.42;;;4.38;;
67140;SDS011;54058;52.010;5.546;2024-01-27T04:21:35;15.00;;;5.10;;
67140;SDS011;54058;52.010;5.546;2024-01-27T04:24:01;14.60;;;4.13;;
67140;SDS011;54058;52.010;5.546;2024-01-27T04:26:27;21.25;;;4.40;;
67140;SDS011;54058;52.010;5.546;2024-01-27T04:28:53;21.10;;;4.72;;
67140;SDS011;54058;52.010;5.546;2024-01-27T04:31:18;28.52;;;5.43;;
67140;SDS011;54058;52.010;5.546;2024-01-27T04:33:44;10.48;;;4.20;;
67140;SDS011;54058;52.010;5.546;2024-01-27T04:36:10;15.88;;;4.90;;
67140;SDS011;54058;52.010;5.546;2024-01-27T04:38:35;19.77;;;4.53;;
67140;SDS011;54058;52.010;5.546;2024-01-27T04:41:01;16.20;;;4.75;;
67140;SDS011;54058;52.010;5.546;2024-01-27T04:43:27;21.38;;;4.78;;
67140;SDS011;54058;52.010;5.546;2024-01-27T04:45:54;17.33;;;4.72;;
67140;SDS011;54058;52.010;5.546;2024-01-27T04:48:19;15.70;;;5.55;;
67140;SDS011;54058;52.010;5.546;2024-01-27T04:50:45;15.65;;;5.32;;
67140;SDS011;54058;52.010;5.546;2024-01-27T04:53:11;19.00;;;4.50;;
67140;SDS011;54058;52.010;5.546;2024-01-27T04:55:37;18.35;;;4.80;;
67140;SDS011;54058;52.010;5.546;2024-01-27T04:58:03;21.40;;;5.40;;
67140;SDS011;54058;52.010;5.546;2024-01-27T05:00:29;21.48;;;5.60;;
67140;SDS011;54058;52.010;5.546;2024-01-27T05:02:55;24.60;;;5.47;;
67140;SDS011;54058;52.010;5.546;2024-01-27T05:05:22;21.05;;;6.53;;
67140;SDS011;54058;52.010;5.546;2024-01-27T05:07:48;11.27;;;5.10;;
67140;SDS011;54058;52.010;5.546;2024-01-27T05:10:17;13.73;;;5.05;;
67140;SDS011;54058;52.010;5.546;2024-01-27T05:12:42;16.67;;;5.68;;
67140;SDS011;54058;52.010;5.546;2024-01-27T05:15:09;21.08;;;6.18;;
67140;SDS011;54058;52.010;5.546;2024-01-27T05:20:01;14.18;;;6.30;;
67140;SDS011;54058;52.010;5.546;2024-01-27T05:22:29;16.85;;;6.57;;
67140;SDS011;54058;52.010;5.546;2024-01-27T05:24:55;17.35;;;5.75;;
67140;SDS011;54058;52.010;5.546;2024-01-27T05:27:22;24.05;;;6.72;;
67140;SDS011;54058;52.010;5.546;2024-01-27T05:29:48;23.25;;;6.05;;
67140;SDS011;54058;52.010;5.546;2024-01-27T05:32:14;20.85;;;5.90;;
67140;SDS011;54058;52.010;5.546;2024-01-27T05:34:40;18.88;;;6.60;;
67140;SDS011;54058;52.010;5.546;2024-01-27T05:37:05;20.63;;;7.22;;
67140;SDS011;54058;52.010;5.546;2024-01-27T05:39:31;18.63;;;6.75;;
67140;SDS011;54058;52.010;5.546;2024-01-27T05:41:58;14.98;;;5.78;;
67140;SDS011;54058;52.010;5.546;2024-01-27T05:44:24;19.75;;;6.65;;
67140;SDS011;54058;52.010;5.546;2024-01-27T05:46:50;15.63;;;5.82;;
67140;SDS011;54058;52.010;5.546;2024-01-27T05:49:15;18.70;;;6.95;;
67140;SDS011;54058;52.010;5.546;2024-01-27T05:51:41;14.45;;;5.60;;
67140;SDS011;54058;52.010;5.546;2024-01-27T05:54:08;14.60;;;6.00;;
67140;SDS011;54058;52.010;5.546;2024-01-27T05:56:34;23.45;;;6.97;;
67140;SDS011;54058;52.010;5.546;2024-01-27T05:59:01;23.03;;;6.27;;
67140;SDS011;54058;52.010;5.546;2024-01-27T06:01:27;15.30;;;5.70;;
67140;SDS011;54058;52.010;5.546;2024-01-27T06:03:53;20.42;;;6.40;;
67140;SDS011;54058;52.010;5.546;2024-01-27T06:06:19;18.52;;;6.15;;
67140;SDS011;54058;52.010;5.546;2024-01-27T06:08:44;16.20;;;7.25;;
67140;SDS011;54058;52.010;5.546;2024-01-27T06:11:10;24.35;;;6.97;;
67140;SDS011;54058;52.010;5.546;2024-01-27T06:13:36;19.63;;;5.68;;
67140;SDS011;54058;52.010;5.546;2024-01-27T06:16:06;12.93;;;5.65;;
67140;SDS011;54058;52.010;5.546;2024-01-27T06:18:34;23.83;;;6.70;;
67140;SDS011;54058;52.010;5.546;2024-01-27T06:21:00;16.13;;;5.68;;
67140;SDS011;54058;52.010;5.546;2024-01-27T06:23:25;23.35;;;6.57;;
67140;SDS011;54058;52.010;5.546;2024-01-27T06:25:51;15.55;;;5.40;;
67140;SDS011;54058;52.010;5.546;2024-01-27T06:28:17;26.05;;;7.25;;
67140;SDS011;54058;52.010;5.546;2024-01-27T06:30:43;12.70;;;5.50;;
67140;SDS011;54058;52.010;5.546;2024-01-27T06:33:08;26.30;;;7.03;;
67140;SDS011;54058;52.010;5.546;2024-01-27T06:35:34;19.90;;;5.72;;
67140;SDS011;54058;52.010;5.546;2024-01-27T06:37:59;15.13;;;5.55;;
67140;SDS011;54058;52.010;5.546;2024-01-27T06:40:25;18.77;;;5.35;;
67140;SDS011;54058;52.010;5.546;2024-01-27T06:42:51;19.55;;;5.65;;
67140;SDS011;54058;52.010;5.546;2024-01-27T06:45:16;18.10;;;5.25;;
67140;SDS011;54058;52.010;5.546;2024-01-27T06:47:42;14.35;;;5.60;;
67140;SDS011;54058;52.010;5.546;2024-01-27T06:50:08;19.70;;;5.80;;
67140;SDS011;54058;52.010;5.546;2024-01-27T06:52:34;16.05;;;5.20;;
67140;SDS011;54058;52.010;5.546;2024-01-27T06:54:59;15.27;;;5.75;;
67140;SDS011;54058;52.010;5.546;2024-01-27T06:57:25;16.23;;;5.95;;
67140;SDS011;54058;52.010;5.546;2024-01-27T06:59:51;17.52;;;5.95;;
67140;SDS011;54058;52.010;5.546;2024-01-27T07:02:24;15.17;;;6.37;;
67140;SDS011;54058;52.010;5.546;2024-01-27T07:04:51;16.25;;;5.35;;
67140;SDS011;54058;52.010;5.546;2024-01-27T07:07:17;12.35;;;5.20;;
67140;SDS011;54058;52.010;5.546;2024-01-27T07:09:45;15.75;;;5.75;;
67140;SDS011;54058;52.010;5.546;2024-01-27T07:12:11;10.10;;;4.85;;
67140;SDS011;54058;52.010;5.546;2024-01-27T07:14:37;14.68;;;5.55;;
67140;SDS011;54058;52.010;5.546;2024-01-27T07:17:03;16.70;;;4.82;;
67140;SDS011;54058;52.010;5.546;2024-01-27T07:19:29;17.88;;;6.32;;
67140;SDS011;54058;52.010;5.546;2024-01-27T07:21:55;15.35;;;5.72;;
67140;SDS011;54058;52.010;5.546;2024-01-27T07:24:20;20.80;;;6.20;;
67140;SDS011;54058;52.010;5.546;2024-01-27T07:26:46;16.70;;;5.72;;
67140;SDS011;54058;52.010;5.546;2024-01-27T07:29:11;21.52;;;5.35;;
67140;SDS011;54058;52.010;5.546;2024-01-27T07:31:37;15.13;;;5.50;;
67140;SDS011;54058;52.010;5.546;2024-01-27T07:34:03;17.35;;;5.38;;
67140;SDS011;54058;52.010;5.546;2024-01-27T07:36:31;16.77;;;5.88;;
67140;SDS011;54058;52.010;5.546;2024-01-27T07:38:57;21.63;;;6.47;;
67140;SDS011;54058;52.010;5.546;2024-01-27T07:41:23;15.75;;;5.43;;
67140;SDS011;54058;52.010;5.546;2024-01-27T07:43:48;16.55;;;6.00;;
67140;SDS011;54058;52.010;5.546;2024-01-27T07:46:14;20.90;;;6.40;;
67140;SDS011;54058;52.010;5.546;2024-01-27T07:48:40;18.40;;;7.55;;
67140;SDS011;54058;52.010;5.546;2024-01-27T07:51:06;20.23;;;6.97;;
67140;SDS011;54058;52.010;5.546;2024-01-27T07:53:32;18.33;;;6.15;;
67140;SDS011;54058;52.010;5.546;2024-01-27T07:55:59;14.05;;;6.03;;
67140;SDS011;54058;52.010;5.546;2024-01-27T07:58:24;16.08;;;5.75;;
67140;SDS011;54058;52.010;5.546;2024-01-27T08:00:51;16.48;;;5.80;;
67140;SDS011;54058;52.010;5.546;2024-01-27T08:03:16;17.80;;;5.75;;
67140;SDS011;54058;52.010;5.546;2024-01-27T08:05:42;14.15;;;5.88;;
67140;SDS011;54058;52.010;5.546;2024-01-27T08:08:07;17.40;;;5.97;;
67140;SDS011;54058;52.010;5.546;2024-01-27T08:10:33;14.23;;;5.65;;
67140;SDS011;54058;52.010;5.546;2024-01-27T08:12:59;20.25;;;6.93;;
67140;SDS011;54058;52.010;5.546;2024-01-27T08:15:25;19.13;;;6.78;;
67140;SDS011;54058;52.010;5.546;2024-01-27T08:17:50;26.42;;;6.43;;
67140;SDS011;54058;52.010;5.546;2024-01-27T08:20:16;16.20;;;6.00;;
67140;SDS011;54058;52.010;5.546;2024-01-27T08:22:42;12.20;;;6.22;;
67140;SDS011;54058;52.010;5.546;2024-01-27T08:25:07;19.83;;;5.55;;
67140;SDS011;54058;52.010;5.546;2024-01-27T08:27:33;18.15;;;6.43;;
67140;SDS011;54058;52.010;5.546;2024-01-27T08:29:59;28.00;;;6.13;;
67140;SDS011;54058;52.010;5.546;2024-01-27T08:32:24;17.00;;;6.25;;
67140;SDS011;54058;52.010;5.546;2024-01-27T08:34:50;20.70;;;6.53;;
67140;SDS011;54058;52.010;5.546;2024-01-27T08:37:19;13.68;;;6.43;;
67140;SDS011;54058;52.010;5.546;2024-01-27T08:39:46;21.63;;;6.82;;
67140;SDS011;54058;52.010;5.546;2024-01-27T08:42:11;18.60;;;5.95;;
67140;SDS011;54058;52.010;5.546;2024-01-27T08:44:37;15.52;;;6.22;;
67140;SDS011;54058;52.010;5.546;2024-01-27T08:47:04;19.00;;;6.07;;
67140;SDS011;54058;52.010;5.546;2024-01-27T08:49:30;24.45;;;6.55;;
67140;SDS011;54058;52.010;5.546;2024-01-27T08:51:56;19.10;;;6.43;;
67140;SDS011;54058;52.010;5.546;2024-01-27T08:54:21;16.15;;;6.18;;
67140;SDS011;54058;52.010;5.546;2024-01-27T08:56:47;21.63;;;6.05;;
67140;SDS011;54058;52.010;5.546;2024-01-27T08:59:13;14.45;;;6.60;;
67140;SDS011;54058;52.010;5.546;2024-01-27T09:01:39;18.08;;;6.88;;
67140;SDS011;54058;52.010;5.546;2024-01-27T09:04:04;17.35;;;6.03;;
67140;SDS011;54058;52.010;5.546;2024-01-27T09:06:30;18.70;;;6.65;;
67140;SDS011;54058;52.010;5.546;2024-01-27T09:08:56;14.68;;;5.70;;
67140;SDS011;54058;52.010;5.546;2024-01-27T09:11:21;20.75;;;6.68;;
67140;SDS011;54058;52.010;5.546;2024-01-27T09:13:48;16.42;;;6.75;;
67140;SDS011;54058;52.010;5.546;2024-01-27T09:16:16;19.77;;;7.65;;
67140;SDS011;54058;52.010;5.546;2024-01-27T09:18:43;14.68;;;6.20;;
67140;SDS011;54058;52.010;5.546;2024-01-27T09:21:08;15.93;;;6.05;;
67140;SDS011;54058;52.010;5.546;2024-01-27T09:23:34;29.30;;;7.18;;
67140;SDS011;54058;52.010;5.546;2024-01-27T09:26:00;16.27;;;6.25;;
67140;SDS011;54058;52.010;5.546;2024-01-27T09:28:26;13.93;;;6.22;;
67140;SDS011;54058;52.010;5.546;2024-01-27T09:30:52;15.52;;;6.65;;
67140;SDS011;54058;52.010;5.546;2024-01-27T09:33:17;16.52;;;6.53;;
67140;SDS011;54058;52.010;5.546;2024-01-27T09:35:45;17.00;;;5.93;;
67140;SDS011;54058;52.010;5.546;2024-01-27T09:38:11;16.23;;;6.15;;
67140;SDS011;54058;52.010;5.546;2024-01-27T09:40:39;10.50;;;5.95;;
67140;SDS011;54058;52.010;5.546;2024-01-27T09:43:05;15.18;;;5.57;;
67140;SDS011;54058;52.010;5.546;2024-01-27T09:45:32;20.23;;;7.28;;
67140;SDS011;54058;52.010;5.546;2024-01-27T09:47:57;14.02;;;6.28;;
67140;SDS011;54058;52.010;5.546;2024-01-27T09:50:25;16.63;;;6.75;;
67140;SDS011;54058;52.010;5.546;2024-01-27T09:52:52;18.90;;;6.47;;
67140;SDS011;54058;52.010;5.546;2024-01-27T09:55:18;19.88;;;7.32;;
67140;SDS011;54058;52.010;5.546;2024-01-27T09:57:44;14.68;;;6.32;;
67140;SDS011;54058;52.010;5.546;2024-01-27T10:00:10;27.92;;;7.60;;
67140;SDS011;54058;52.010;5.546;2024-01-27T10:02:41;28.20;;;7.32;;
67140;SDS011;54058;52.010;5.546;2024-01-27T10:05:08;13.50;;;6.90;;
67140;SDS011;54058;52.010;5.546;2024-01-27T10:07:34;14.40;;;6.85;;
67140;SDS011;54058;52.010;5.546;2024-01-27T10:09:59;19.33;;;7.20;;
67140;SDS011;54058;52.010;5.546;2024-01-27T10:12:25;19.50;;;6.63;;
67140;SDS011;54058;52.010;5.546;2024-01-27T10:14:53;29.75;;;7.30;;
67140;SDS011;54058;52.010;5.546;2024-01-27T10:17:22;12.52;;;5.80;;
67140;SDS011;54058;52.010;5.546;2024-01-27T10:20:02;17.38;;;6.28;;
67140;SDS011;54058;52.010;5.546;2024-01-27T10:22:36;14.95;;;6.43;;
67140;SDS011;54058;52.010;5.546;2024-01-27T10:25:03;16.67;;;6.57;;
67140;SDS011;54058;52.010;5.546;2024-01-27T10:27:29;18.87;;;6.77;;
67140;SDS011;54058;52.010;5.546;2024-01-27T10:29:55;17.38;;;6.70;;
67140;SDS011;54058;52.010;5.546;2024-01-27T10:32:21;17.00;;;6.78;;
67140;SDS011;54058;52.010;5.546;2024-01-27T10:35:00;18.17;;;6.13;;
67140;SDS011;54058;52.010;5.546;2024-01-27T10:37:35;20.63;;;6.38;;
67140;SDS011;54058;52.010;5.546;2024-01-27T10:40:08;17.73;;;5.93;;
67140;SDS011;54058;52.010;5.546;2024-01-27T10:42:35;16.58;;;5.93;;
67140;SDS011;54058;52.010;5.546;2024-01-27T10:45:02;16.98;;;6.30;;
67140;SDS011;54058;52.010;5.546;2024-01-27T10:47:29;14.38;;;6.22;;
67140;SDS011;54058;52.010;5.546;2024-01-27T10:49:56;19.00;;;6.00;;
67140;SDS011;54058;52.010;5.546;2024-01-27T10:52:23;17.38;;;6.20;;
67140;SDS011;54058;52.010;5.546;2024-01-27T10:54:54;19.80;;;6.45;;
67140;SDS011;54058;52.010;5.546;2024-01-27T10:57:24;20.02;;;6.53;;
67140;SDS011;54058;52.010;5.546;2024-01-27T10:59:51;16.70;;;7.50;;
67140;SDS011;54058;52.010;5.546;2024-01-27T11:02:20;12.50;;;5.60;;
67140;SDS011;54058;52.010;5.546;2024-01-27T11:04:50;15.30;;;5.82;;
67140;SDS011;54058;52.010;5.546;2024-01-27T11:07:19;15.43;;;5.88;;
67140;SDS011;54058;52.010;5.546;2024-01-27T11:09:48;18.45;;;6.15;;
67140;SDS011;54058;52.010;5.546;2024-01-27T11:12:15;20.88;;;6.40;;
67140;SDS011;54058;52.010;5.546;2024-01-27T11:14:43;12.27;;;5.30;;
67140;SDS011;54058;52.010;5.546;2024-01-27T11:17:10;19.83;;;5.35;;
67140;SDS011;54058;52.010;5.546;2024-01-27T11:19:36;18.30;;;5.40;;
67140;SDS011;54058;52.010;5.546;2024-01-27T11:22:05;19.27;;;6.43;;
67140;SDS011;54058;52.010;5.546;2024-01-27T11:24:31;16.02;;;5.30;;
67140;SDS011;54058;52.010;5.546;2024-01-27T11:27:00;15.77;;;5.43;;
67140;SDS011;54058;52.010;5.546;2024-01-27T11:29:48;17.17;;;6.05;;
67140;SDS011;54058;52.010;5.546;2024-01-27T11:32:14;16.77;;;5.75;;
67140;SDS011;54058;52.010;5.546;2024-01-27T11:34:43;18.98;;;6.00;;
67140;SDS011;54058;52.010;5.546;2024-01-27T11:37:10;16.77;;;6.47;;
67140;SDS011;54058;52.010;5.546;2024-01-27T11:39:39;20.17;;;6.28;;
67140;SDS011;54058;52.010;5.546;2024-01-27T11:42:05;19.40;;;5.68;;
67140;SDS011;54058;52.010;5.546;2024-01-27T11:44:35;18.23;;;5.55;;
67140;SDS011;54058;52.010;5.546;2024-01-27T11:47:02;25.13;;;6.03;;
67140;SDS011;54058;52.010;5.546;2024-01-27T11:49:28;18.85;;;5.93;;
67140;SDS011;54058;52.010;5.546;2024-01-27T11:51:54;20.58;;;6.07;;
67140;SDS011;54058;52.010;5.546;2024-01-27T11:54:20;30.45;;;6.15;;
67140;SDS011;54058;52.010;5.546;2024-01-27T11:56:45;21.27;;;6.38;;
67140;SDS011;54058;52.010;5.546;2024-01-27T11:59:11;22.13;;;6.47;;
67140;SDS011;54058;52.010;5.546;2024-01-27T12:01:37;19.55;;;6.28;;
67140;SDS011;54058;52.010;5.546;2024-01-27T12:04:07;15.70;;;5.95;;
67140;SDS011;54058;52.010;5.546;2024-01-27T12:06:34;25.17;;;6.47;;
67140;SDS011;54058;52.010;5.546;2024-01-27T12:08:59;14.65;;;5.57;;
67140;SDS011;54058;52.010;5.546;2024-01-27T12:11:25;15.32;;;5.57;;
67140;SDS011;54058;52.010;5.546;2024-01-27T12:13:51;20.17;;;6.78;;
67140;SDS011;54058;52.010;5.546;2024-01-27T12:16:18;18.88;;;6.78;;
67140;SDS011;54058;52.010;5.546;2024-01-27T12:18:45;17.55;;;6.00;;
67140;SDS011;54058;52.010;5.546;2024-01-27T12:21:10;26.88;;;5.63;;
67140;SDS011;54058;52.010;5.546;2024-01-27T12:23:36;20.58;;;5.63;;
67140;SDS011;54058;52.010;5.546;2024-01-27T12:26:16;15.23;;;5.20;;
67140;SDS011;54058;52.010;5.546;2024-01-27T12:28:44;14.45;;;5.47;;
67140;SDS011;54058;52.010;5.546;2024-01-27T12:31:11;14.88;;;4.65;;
67140;SDS011;54058;52.010;5.546;2024-01-27T12:33:37;17.85;;;6.07;;
67140;SDS011;54058;52.010;5.546;2024-01-27T12:36:06;16.35;;;5.55;;
67140;SDS011;54058;52.010;5.546;2024-01-27T12:38:32;13.50;;;4.93;;
67140;SDS011;54058;52.010;5.546;2024-01-27T12:40:58;20.73;;;4.85;;
67140;SDS011;54058;52.010;5.546;2024-01-27T12:43:24;18.52;;;4.93;;
67140;SDS011;54058;52.010;5.546;2024-01-27T12:45:50;14.98;;;5.10;;
67140;SDS011;54058;52.010;5.546;2024-01-27T12:48:15;21.45;;;4.00;;
67140;SDS011;54058;52.010;5.546;2024-01-27T12:50:44;18.30;;;4.07;;
67140;SDS011;54058;52.010;5.546;2024-01-27T12:53:09;15.35;;;4.15;;
67140;SDS011;54058;52.010;5.546;2024-01-27T12:55:35;15.88;;;3.33;;
67140;SDS011;54058;52.010;5.546;2024-01-27T12:58:01;10.75;;;3.78;;
67140;SDS011;54058;52.010;5.546;2024-01-27T13:00:27;13.90;;;4.22;;
67140;SDS011;54058;52.010;5.546;2024-01-27T13:02:53;16.25;;;4.35;;
67140;SDS011;54058;52.010;5.546;2024-01-27T13:05:18;13.73;;;4.35;;
67140;SDS011;54058;52.010;5.546;2024-01-27T13:07:45;11.52;;;3.80;;
67140;SDS011;54058;52.010;5.546;2024-01-27T13:10:11;12.18;;;4.32;;
67140;SDS011;54058;52.010;5.546;2024-01-27T13:12:36;15.35;;;4.78;;
67140;SDS011;54058;52.010;5.546;2024-01-27T13:15:02;13.95;;;3.72;;
67140;SDS011;54058;52.010;5.546;2024-01-27T13:17:28;17.75;;;4.72;;
67140;SDS011;54058;52.010;5.546;2024-01-27T13:19:54;15.15;;;5.05;;
67140;SDS011;54058;52.010;5.546;2024-01-27T13:22:20;14.02;;;4.60;;
67140;SDS011;54058;52.010;5.546;2024-01-27T13:24:49;16.02;;;4.68;;
67140;SDS011;54058;52.010;5.546;2024-01-27T13:27:14;14.90;;;4.28;;
67140;SDS011;54058;52.010;5.546;2024-01-27T13:29:40;13.50;;;4.28;;
67140;SDS011;54058;52.010;5.546;2024-01-27T13:32:10;20.15;;;4.35;;
67140;SDS011;54058;52.010;5.546;2024-01-27T13:34:35;18.08;;;4.40;;
67140;SDS011;54058;52.010;5.546;2024-01-27T13:37:01;21.42;;;4.22;;
67140;SDS011;54058;52.010;5.546;2024-01-27T13:39:29;16.23;;;4.53;;
67140;SDS011;54058;52.010;5.546;2024-01-27T13:41:54;19.00;;;3.97;;
67140;SDS011;54058;52.010;5.546;2024-01-27T13:44:20;18.05;;;3.92;;
67140;SDS011;54058;52.010;5.546;2024-01-27T13:46:46;16.83;;;4.60;;
67140;SDS011;54058;52.010;5.546;2024-01-27T13:49:12;16.50;;;4.30;;
67140;SDS011;54058;52.010;5.546;2024-01-27T13:51:38;13.38;;;3.75;;
67140;SDS011;54058;52.010;5.546;2024-01-27T13:54:12;12.90;;;4.20;;
67140;SDS011;54058;52.010;5.546;2024-01-27T13:56:39;17.38;;;4.53;;
67140;SDS011;54058;52.010;5.546;2024-01-27T13:59:04;14.20;;;4.05;;
67140;SDS011;54058;52.010;5.546;2024-01-27T14:01:31;18.77;;;4.72;;
67140;SDS011;54058;52.010;5.546;2024-01-27T14:03:57;18.60;;;4.20;;
67140;SDS011;54058;52.010;5.546;2024-01-27T14:06:23;10.15;;;3.92;;
67140;SDS011;54058;52.010;5.546;2024-01-27T14:08:49;17.52;;;4.85;;
67140;SDS011;54058;52.010;5.546;2024-01-27T14:11:15;14.25;;;3.78;;
67140;SDS011;54058;52.010;5.546;2024-01-27T14:13:41;13.20;;;4.00;;
67140;SDS011;54058;52.010;5.546;2024-01-27T14:16:08;12.98;;;4.15;;
67140;SDS011;54058;52.010;5.546;2024-01-27T14:18:34;11.88;;;3.85;;
67140;SDS011;54058;52.010;5.546;2024-01-27T14:20:59;15.38;;;4.10;;
67140;SDS011;54058;52.010;5.546;2024-01-27T14:23:25;12.60;;;3.78;;
67140;SDS011;54058;52.010;5.546;2024-01-27T14:25:50;12.30;;;3.33;;
67140;SDS011;54058;52.010;5.546;2024-01-27T14:28:16;11.65;;;4.22;;
67140;SDS011;54058;52.010;5.546;2024-01-27T14:30:42;21.85;;;4.30;;
67140;SDS011;54058;52.010;5.546;2024-01-27T14:33:09;13.02;;;4.53;;